sensor_id;sensor_type;location;lat;lon;timestamp;pressure;altitude;pressure_sealevel;temperature;humidity
60611;BME280;46439;51.164;13.572;2023-04-27T00:00:34;100242.79;;;5.55;100.00
60611;BME280;46439;51.164;13.572;2023-04-27T00:03:03;100245.27;;;5.49;100.00
60611;BME280;46439;51.164;13.572;2023-04-27T00:05:34;100243.33;;;5.49;100.00
60611;BME280;46439;51.164;13.572;2023-04-27T00:08:03;100238.47;;;5.48;100.00
60611;BME280;46439;51.164;13.572;2023-04-27T00:10:32;100242.30;;;5.50;100.00
60611;BME280;46439;51.164;13.572;2023-04-27T00:13:01;100243.09;;;5.53;100.00
60611;BME280;46439;51.164;13.572;2023-04-27T00:15:30;100238.59;;;5.52;100.00
60611;BME280;46439;51.164;13.572;2023-04-27T00:17:59;100239.52;;;5.52;100.00
60611;BME280;46439;51.164;13.572;2023-04-27T00:20:28;100237.31;;;5.54;100.00
60611;BME280;46439;51.164;13.572;2023-04-27T00:22:57;100238.89;;;5.53;100.00
60611;BME280;46439;51.164;13.572;2023-04-27T00:25:26;100237.20;;;5.50;100.00
60611;BME280;46439;51.164;13.572;2023-04-27T00:27:54;100237.36;;;5.46;100.00
60611;BME280;46439;51.164;13.572;2023-04-27T00:30:23;100239.05;;;5.45;100.00
60611;BME280;46439;51.164;13.572;2023-04-27T00:32:51;100234.36;;;5.45;100.00
60611;BME280;46439;51.164;13.572;2023-04-27T00:35:20;100236.16;;;5.45;100.00
60611;BME280;46439;51.164;13.572;2023-04-27T00:37:48;100239.08;;;5.47;100.00
60611;BME280;46439;51.164;13.572;2023-04-27T00:40:18;100240.42;;;5.45;100.00
60611;BME280;46439;51.164;13.572;2023-04-27T00:42:47;100240.04;;;5.48;100.00
60611;BME280;46439;51.164;13.572;2023-04-27T00:45:16;100238.56;;;5.51;100.00
60611;BME280;46439;51.164;13.572;2023-04-27T00:47:44;100242.54;;;5.48;100.00
60611;BME280;46439;51.164;13.572;2023-04-27T00:50:13;100243.06;;;5.42;100.00
60611;BME280;46439;51.164;13.572;2023-04-27T00:52:42;100244.22;;;5.37;100.00
60611;BME280;46439;51.164;13.572;2023-04-27T00:55:10;100247.73;;;5.32;100.00
60611;BME280;46439;51.164;13.572;2023-04-27T00:57:39;100249.91;;;5.26;100.00
60611;BME280;46439;51.164;13.572;2023-04-27T01:00:10;100247.59;;;5.24;100.00
60611;BME280;46439;51.164;13.572;2023-04-27T01:02:39;100251.27;;;5.24;100.00
60611;BME280;46439;51.164;13.572;2023-04-27T01:05:08;100248.65;;;5.24;100.00
60611;BME280;46439;51.164;13.572;2023-04-27T01:07:39;100249.97;;;5.23;100.00
60611;BME280;46439;51.164;13.572;2023-04-27T01:10:09;100252.05;;;5.21;100.00
60611;BME280;46439;51.164;13.572;2023-04-27T01:12:38;100252.14;;;5.25;100.00
60611;BME280;46439;51.164;13.572;2023-04-27T01:15:09;100253.24;;;5.24;100.00
60611;BME280;46439;51.164;13.572;2023-04-27T01:17:38;100252.50;;;5.23;100.00
60611;BME280;46439;51.164;13.572;2023-04-27T01:20:08;100253.95;;;5.25;100.00
60611;BME280;46439;51.164;13.572;2023-04-27T01:22:37;100254.69;;;5.28;100.00
60611;BME280;46439;51.164;13.572;2023-04-27T01:25:07;100256.92;;;5.31;100.00
60611;BME280;46439;51.164;13.572;2023-04-27T01:27:36;100255.95;;;5.32;100.00
60611;BME280;46439;51.164;13.572;2023-04-27T01:30:06;100257.55;;;5.26;100.00
60611;BME280;46439;51.164;13.572;2023-04-27T01:32:37;100256.20;;;5.18;100.00
60611;BME280;46439;51.164;13.572;2023-04-27T01:35:07;100259.64;;;5.16;100.00
60611;BME280;46439;51.164;13.572;2023-04-27T01:37:36;100256.42;;;5.14;100.00
60611;BME280;46439;51.164;13.572;2023-04-27T01:40:06;100259.52;;;5.13;100.00
60611;BME280;46439;51.164;13.572;2023-04-27T01:42:35;100265.71;;;5.14;100.00
60611;BME280;46439;51.164;13.572;2023-04-27T01:45:05;100265.33;;;5.08;100.00
60611;BME280;46439;51.164;13.572;2023-04-27T01:47:34;100269.48;;;5.06;100.00
60611;BME280;46439;51.164;13.572;2023-04-27T01:50:02;100272.65;;;5.06;100.00
60611;BME280;46439;51.164;13.572;2023-04-27T01:52:31;100272.29;;;5.02;100.00
60611;BME280;46439;51.164;13.572;2023-04-27T01:54:59;100273.53;;;4.92;100.00
60611;BME280;46439;51.164;13.572;2023-04-27T01:57:28;100275.60;;;4.85;100.00
60611;BME280;46439;51.164;13.572;2023-04-27T01:59:56;100275.94;;;4.83;100.00
60611;BME280;46439;51.164;13.572;2023-04-27T02:02:25;100278.52;;;4.82;100.00
60611;BME280;46439;51.164;13.572;2023-04-27T02:04:53;100280.73;;;4.81;100.00
60611;BME280;46439;51.164;13.572;2023-04-27T02:07:22;100281.05;;;4.79;100.00
60611;BME280;46439;51.164;13.572;2023-04-27T02:09:50;100282.57;;;4.76;100.00
60611;BME280;46439;51.164;13.572;2023-04-27T02:12:19;100283.52;;;4.74;100.00
60611;BME280;46439;51.164;13.572;2023-04-27T02:14:48;100282.23;;;4.74;100.00
60611;BME280;46439;51.164;13.572;2023-04-27T02:17:16;100285.19;;;4.71;100.00
60611;BME280;46439;51.164;13.572;2023-04-27T02:19:44;100283.02;;;4.71;100.00
60611;BME280;46439;51.164;13.572;2023-04-27T02:22:13;100286.38;;;4.72;100.00
60611;BME280;46439;51.164;13.572;2023-04-27T02:24:41;100289.90;;;4.70;100.00
60611;BME280;46439;51.164;13.572;2023-04-27T02:27:10;100290.77;;;4.63;100.00
60611;BME280;46439;51.164;13.572;2023-04-27T02:29:38;100293.64;;;4.61;100.00
60611;BME280;46439;51.164;13.572;2023-04-27T02:32:07;100293.80;;;4.56;100.00
60611;BME280;46439;51.164;13.572;2023-04-27T02:34:35;100294.89;;;4.51;100.00
60611;BME280;46439;51.164;13.572;2023-04-27T02:37:04;100292.80;;;4.49;100.00
60611;BME280;46439;51.164;13.572;2023-04-27T02:39:32;100292.70;;;4.43;100.00
60611;BME280;46439;51.164;13.572;2023-04-27T02:42:01;100295.52;;;4.39;100.00
60611;BME280;46439;51.164;13.572;2023-04-27T02:44:31;100296.73;;;4.40;100.00
60611;BME280;46439;51.164;13.572;2023-04-27T02:46:59;100294.84;;;4.43;100.00
60611;BME280;46439;51.164;13.572;2023-04-27T02:49:28;100294.84;;;4.46;100.00
60611;BME280;46439;51.164;13.572;2023-04-27T02:51:57;100296.88;;;4.47;100.00
60611;BME280;46439;51.164;13.572;2023-04-27T02:54:25;100296.25;;;4.50;100.00
60611;BME280;46439;51.164;13.572;2023-04-27T02:56:54;100291.90;;;4.53;100.00
60611;BME280;46439;51.164;13.572;2023-04-27T02:59:23;100288.67;;;4.55;100.00
60611;BME280;46439;51.164;13.572;2023-04-27T03:01:51;100288.01;;;4.55;100.00
60611;BME280;46439;51.164;13.572;2023-04-27T03:04:20;100290.31;;;4.51;100.00
60611;BME280;46439;51.164;13.572;2023-04-27T03:06:48;100293.98;;;4.47;100.00
60611;BME280;46439;51.164;13.572;2023-04-27T03:09:18;100295.90;;;4.50;100.00
60611;BME280;46439;51.164;13.572;2023-04-27T03:11:46;100297.86;;;4.54;100.00
60611;BME280;46439;51.164;13.572;2023-04-27T03:14:15;100299.00;;;4.53;100.00
60611;BME280;46439;51.164;13.572;2023-04-27T03:16:43;100301.27;;;4.52;100.00
60611;BME280;46439;51.164;13.572;2023-04-27T03:19:11;100303.52;;;4.52;100.00
60611;BME280;46439;51.164;13.572;2023-04-27T03:21:40;100302.67;;;4.52;100.00
60611;BME280;46439;51.164;13.572;2023-04-27T03:24:09;100310.33;;;4.52;100.00
60611;BME280;46439;51.164;13.572;2023-04-27T03:26:37;100311.10;;;4.49;100.00
60611;BME280;46439;51.164;13.572;2023-04-27T03:29:06;100324.46;;;4.45;100.00
60611;BME280;46439;51.164;13.572;2023-04-27T03:31:35;100326.38;;;4.41;100.00
60611;BME280;46439;51.164;13.572;2023-04-27T03:34:03;100326.84;;;4.40;100.00
60611;BME280;46439;51.164;13.572;2023-04-27T03:36:31;100329.86;;;4.40;100.00
60611;BME280;46439;51.164;13.572;2023-04-27T03:39:00;100329.27;;;4.41;100.00
60611;BME280;46439;51.164;13.572;2023-04-27T03:41:29;100331.66;;;4.40;100.00
60611;BME280;46439;51.164;13.572;2023-04-27T03:43:57;100337.30;;;4.41;100.00
60611;BME280;46439;51.164;13.572;2023-04-27T03:46:26;100337.25;;;4.41;100.00
60611;BME280;46439;51.164;13.572;2023-04-27T03:48:54;100339.63;;;4.47;100.00
60611;BME280;46439;51.164;13.572;2023-04-27T03:51:23;100346.05;;;4.47;100.00
60611;BME280;46439;51.164;13.572;2023-04-27T03:53:52;100346.23;;;4.47;100.00
60611;BME280;46439;51.164;13.572;2023-04-27T03:56:20;100346.54;;;4.52;100.00
60611;BME280;46439;51.164;13.572;2023-04-27T03:58:48;100350.48;;;4.56;100.00
60611;BME280;46439;51.164;13.572;2023-04-27T04:01:17;100350.08;;;4.54;100.00
60611;BME280;46439;51.164;13.572;2023-04-27T04:03:46;100352.93;;;4.52;100.00
60611;BME280;46439;51.164;13.572;2023-04-27T04:06:15;100354.65;;;4.51;100.00
60611;BME280;46439;51.164;13.572;2023-04-27T04:08:44;100357.05;;;4.52;100.00
60611;BME280;46439;51.164;13.572;2023-04-27T04:11:12;100356.84;;;4.52;100.00
60611;BME280;46439;51.164;13.572;2023-04-27T04:13:41;100360.60;;;4.52;100.00
60611;BME280;46439;51.164;13.572;2023-04-27T04:16:10;100360.18;;;4.51;100.00
60611;BME280;46439;51.164;13.572;2023-04-27T04:18:38;100360.00;;;4.51;100.00
60611;BME280;46439;51.164;13.572;2023-04-27T04:21:07;100365.95;;;4.50;100.00
60611;BME280;46439;51.164;13.572;2023-04-27T04:23:36;100366.63;;;4.48;100.00
60611;BME280;46439;51.164;13.572;2023-04-27T04:26:05;100367.85;;;4.48;100.00
60611;BME280;46439;51.164;13.572;2023-04-27T04:28:33;100370.35;;;4.51;100.00
60611;BME280;46439;51.164;13.572;2023-04-27T04:31:02;100371.56;;;4.55;100.00
60611;BME280;46439;51.164;13.572;2023-04-27T04:33:32;100373.80;;;4.60;100.00
60611;BME280;46439;51.164;13.572;2023-04-27T04:36:03;100376.31;;;4.66;100.00
60611;BME280;46439;51.164;13.572;2023-04-27T04:38:32;100377.85;;;4.74;100.00
60611;BME280;46439;51.164;13.572;2023-04-27T04:41:00;100378.59;;;4.79;100.00
60611;BME280;46439;51.164;13.572;2023-04-27T04:43:29;100381.61;;;4.82;100.00
60611;BME280;46439;51.164;13.572;2023-04-27T04:45:58;100380.73;;;4.84;100.00
60611;BME280;46439;51.164;13.572;2023-04-27T04:48:26;100377.20;;;4.88;100.00
60611;BME280;46439;51.164;13.572;2023-04-27T04:50:56;100379.95;;;4.89;100.00
60611;BME280;46439;51.164;13.572;2023-04-27T04:53:24;100381.64;;;4.94;100.00
60611;BME280;46439;51.164;13.572;2023-04-27T04:55:53;100386.70;;;4.97;100.00
60611;BME280;46439;51.164;13.572;2023-04-27T04:58:22;100384.48;;;5.00;100.00
60611;BME280;46439;51.164;13.572;2023-04-27T05:00:50;100385.75;;;5.04;100.00
60611;BME280;46439;51.164;13.572;2023-04-27T05:03:19;100391.11;;;5.06;100.00
60611;BME280;46439;51.164;13.572;2023-04-27T05:05:48;100390.81;;;5.14;100.00
60611;BME280;46439;51.164;13.572;2023-04-27T05:08:16;100389.98;;;5.26;100.00
60611;BME280;46439;51.164;13.572;2023-04-27T05:10:50;100390.03;;;5.37;100.00
60611;BME280;46439;51.164;13.572;2023-04-27T05:13:19;100392.94;;;5.53;100.00
60611;BME280;46439;51.164;13.572;2023-04-27T05:15:48;100394.27;;;5.66;100.00
60611;BME280;46439;51.164;13.572;2023-04-27T05:18:17;100388.84;;;5.75;100.00
60611;BME280;46439;51.164;13.572;2023-04-27T05:20:45;100386.71;;;5.83;100.00
60611;BME280;46439;51.164;13.572;2023-04-27T05:23:14;100385.77;;;5.96;100.00
60611;BME280;46439;51.164;13.572;2023-04-27T05:25:42;100382.65;;;6.10;100.00
60611;BME280;46439;51.164;13.572;2023-04-27T05:28:11;100373.68;;;6.25;100.00
60611;BME280;46439;51.164;13.572;2023-04-27T05:30:40;100373.33;;;6.35;100.00
60611;BME280;46439;51.164;13.572;2023-04-27T05:33:08;100375.26;;;6.45;100.00
60611;BME280;46439;51.164;13.572;2023-04-27T05:35:37;100375.88;;;6.49;100.00
60611;BME280;46439;51.164;13.572;2023-04-27T05:38:05;100374.70;;;6.54;100.00
60611;BME280;46439;51.164;13.572;2023-04-27T05:40:34;100374.88;;;6.62;100.00
60611;BME280;46439;51.164;13.572;2023-04-27T05:43:03;100380.64;;;6.68;100.00
60611;BME280;46439;51.164;13.572;2023-04-27T05:45:32;100378.60;;;6.70;100.00
60611;BME280;46439;51.164;13.572;2023-04-27T05:48:01;100376.91;;;6.75;100.00
60611;BME280;46439;51.164;13.572;2023-04-27T05:50:29;100376.81;;;6.80;100.00
60611;BME280;46439;51.164;13.572;2023-04-27T05:52:58;100370.52;;;6.82;100.00
60611;BME280;46439;51.164;13.572;2023-04-27T05:55:28;100367.99;;;6.84;100.00
60611;BME280;46439;51.164;13.572;2023-04-27T05:57:57;100364.56;;;6.90;100.00
60611;BME280;46439;51.164;13.572;2023-04-27T06:00:26;100364.66;;;6.95;100.00
60611;BME280;46439;51.164;13.572;2023-04-27T06:02:55;100369.05;;;7.00;100.00
60611;BME280;46439;51.164;13.572;2023-04-27T06:05:23;100365.52;;;7.03;100.00
60611;BME280;46439;51.164;13.572;2023-04-27T06:07:52;100364.00;;;7.07;100.00
60611;BME280;46439;51.164;13.572;2023-04-27T06:10:21;100362.92;;;7.15;100.00
60611;BME280;46439;51.164;13.572;2023-04-27T06:12:50;100363.11;;;7.19;100.00
60611;BME280;46439;51.164;13.572;2023-04-27T06:15:19;100361.88;;;7.19;100.00
60611;BME280;46439;51.164;13.572;2023-04-27T06:17:48;100360.99;;;7.26;100.00
60611;BME280;46439;51.164;13.572;2023-04-27T06:20:16;100360.67;;;7.37;100.00
60611;BME280;46439;51.164;13.572;2023-04-27T06:22:45;100359.55;;;7.45;100.00
60611;BME280;46439;51.164;13.572;2023-04-27T06:25:14;100356.15;;;7.54;100.00
60611;BME280;46439;51.164;13.572;2023-04-27T06:27:42;100359.54;;;7.67;100.00
60611;BME280;46439;51.164;13.572;2023-04-27T06:30:12;100363.21;;;7.81;100.00
60611;BME280;46439;51.164;13.572;2023-04-27T06:32:41;100371.21;;;7.93;100.00
60611;BME280;46439;51.164;13.572;2023-04-27T06:35:11;100371.92;;;8.03;100.00
60611;BME280;46439;51.164;13.572;2023-04-27T06:37:39;100371.63;;;8.14;100.00
60611;BME280;46439;51.164;13.572;2023-04-27T06:40:10;100373.40;;;8.26;100.00
60611;BME280;46439;51.164;13.572;2023-04-27T06:42:38;100373.73;;;8.36;100.00
60611;BME280;46439;51.164;13.572;2023-04-27T06:45:08;100370.48;;;8.39;100.00
60611;BME280;46439;51.164;13.572;2023-04-27T06:47:37;100368.38;;;8.45;100.00
60611;BME280;46439;51.164;13.572;2023-04-27T06:50:06;100368.49;;;8.49;100.00
60611;BME280;46439;51.164;13.572;2023-04-27T06:52:35;100367.55;;;8.57;100.00
60611;BME280;46439;51.164;13.572;2023-04-27T06:55:04;100369.40;;;8.61;100.00
60611;BME280;46439;51.164;13.572;2023-04-27T06:57:33;100374.53;;;8.67;100.00
60611;BME280;46439;51.164;13.572;2023-04-27T07:00:02;100375.02;;;8.75;100.00
60611;BME280;46439;51.164;13.572;2023-04-27T07:02:32;100373.90;;;8.82;100.00
60611;BME280;46439;51.164;13.572;2023-04-27T07:05:00;100374.48;;;8.87;100.00
60611;BME280;46439;51.164;13.572;2023-04-27T07:07:29;100377.40;;;8.92;100.00
60611;BME280;46439;51.164;13.572;2023-04-27T07:09:58;100374.67;;;8.96;100.00
60611;BME280;46439;51.164;13.572;2023-04-27T07:12:26;100376.23;;;8.98;100.00
60611;BME280;46439;51.164;13.572;2023-04-27T07:14:54;100374.23;;;9.02;100.00
60611;BME280;46439;51.164;13.572;2023-04-27T07:17:23;100376.00;;;9.06;100.00
60611;BME280;46439;51.164;13.572;2023-04-27T07:19:52;100378.86;;;9.09;100.00
60611;BME280;46439;51.164;13.572;2023-04-27T07:22:20;100380.81;;;9.13;100.00
60611;BME280;46439;51.164;13.572;2023-04-27T07:24:49;100383.31;;;9.15;100.00
60611;BME280;46439;51.164;13.572;2023-04-27T07:27:18;100382.80;;;9.16;100.00
60611;BME280;46439;51.164;13.572;2023-04-27T07:29:47;100375.63;;;9.20;100.00
60611;BME280;46439;51.164;13.572;2023-04-27T07:32:15;100377.29;;;9.28;100.00
60611;BME280;46439;51.164;13.572;2023-04-27T07:34:44;100374.73;;;9.35;100.00
60611;BME280;46439;51.164;13.572;2023-04-27T07:37:13;100374.92;;;9.37;100.00
60611;BME280;46439;51.164;13.572;2023-04-27T07:39:43;100372.42;;;9.38;100.00
60611;BME280;46439;51.164;13.572;2023-04-27T07:42:11;100378.93;;;9.47;100.00
60611;BME280;46439;51.164;13.572;2023-04-27T07:44:40;100376.29;;;9.58;100.00
60611;BME280;46439;51.164;13.572;2023-04-27T07:47:09;100374.31;;;9.69;100.00
60611;BME280;46439;51.164;13.572;2023-04-27T07:49:38;100378.07;;;9.75;100.00
60611;BME280;46439;51.164;13.572;2023-04-27T07:52:07;100381.30;;;9.82;100.00
60611;BME280;46439;51.164;13.572;2023-04-27T07:54:36;100383.30;;;9.94;100.00
60611;BME280;46439;51.164;13.572;2023-04-27T07:57:09;100379.82;;;10.03;100.00
60611;BME280;46439;51.164;13.572;2023-04-27T07:59:39;100380.00;;;10.11;100.00
60611;BME280;46439;51.164;13.572;2023-04-27T08:02:07;100382.98;;;10.20;100.00
60611;BME280;46439;51.164;13.572;2023-04-27T08:04:36;100387.39;;;10.28;100.00
60611;BME280;46439;51.164;13.572;2023-04-27T08:07:04;100387.52;;;10.27;100.00
60611;BME280;46439;51.164;13.572;2023-04-27T08:09:33;100388.52;;;10.26;100.00
60611;BME280;46439;51.164;13.572;2023-04-27T08:12:02;100388.87;;;10.28;100.00
60611;BME280;46439;51.164;13.572;2023-04-27T08:14:31;100390.25;;;10.33;100.00
60611;BME280;46439;51.164;13.572;2023-04-27T08:17:01;100392.88;;;10.44;100.00
60611;BME280;46439;51.164;13.572;2023-04-27T08:19:29;100391.77;;;10.56;100.00
60611;BME280;46439;51.164;13.572;2023-04-27T08:21:58;100392.55;;;10.67;100.00
60611;BME280;46439;51.164;13.572;2023-04-27T08:24:26;100388.90;;;10.75;100.00
60611;BME280;46439;51.164;13.572;2023-04-27T08:26:55;100383.08;;;10.83;100.00
60611;BME280;46439;51.164;13.572;2023-04-27T08:29:23;100380.92;;;10.92;100.00
60611;BME280;46439;51.164;13.572;2023-04-27T08:31:52;100383.55;;;11.01;100.00
60611;BME280;46439;51.164;13.572;2023-04-27T08:34:20;100374.44;;;11.09;100.00
60611;BME280;46439;51.164;13.572;2023-04-27T08:36:49;100376.20;;;11.09;100.00
60611;BME280;46439;51.164;13.572;2023-04-27T08:39:17;100376.17;;;11.12;100.00
60611;BME280;46439;51.164;13.572;2023-04-27T08:41:46;100376.25;;;11.16;100.00
60611;BME280;46439;51.164;13.572;2023-04-27T08:44:14;100374.45;;;11.23;100.00
60611;BME280;46439;51.164;13.572;2023-04-27T08:46:43;100371.92;;;11.31;100.00
60611;BME280;46439;51.164;13.572;2023-04-27T08:49:11;100368.63;;;11.40;100.00
60611;BME280;46439;51.164;13.572;2023-04-27T08:51:40;100371.79;;;11.43;100.00
60611;BME280;46439;51.164;13.572;2023-04-27T08:54:09;100368.42;;;11.49;100.00
60611;BME280;46439;51.164;13.572;2023-04-27T08:56:39;100368.55;;;11.59;100.00
60611;BME280;46439;51.164;13.572;2023-04-27T08:59:26;100368.44;;;11.68;100.00
60611;BME280;46439;51.164;13.572;2023-04-27T09:01:57;100362.52;;;11.79;100.00
60611;BME280;46439;51.164;13.572;2023-04-27T09:04:37;100358.30;;;11.92;100.00
60611;BME280;46439;51.164;13.572;2023-04-27T09:07:13;100357.27;;;11.97;100.00
60611;BME280;46439;51.164;13.572;2023-04-27T09:09:41;100358.86;;;12.05;100.00
60611;BME280;46439;51.164;13.572;2023-04-27T09:12:18;100358.83;;;12.09;100.00
60611;BME280;46439;51.164;13.572;2023-04-27T09:14:58;100357.15;;;12.16;100.00
60611;BME280;46439;51.164;13.572;2023-04-27T09:17:28;100358.67;;;12.28;100.00
60611;BME280;46439;51.164;13.572;2023-04-27T09:20:07;100355.79;;;12.39;100.00
60611;BME280;46439;51.164;13.572;2023-04-27T09:22:44;100350.92;;;12.51;100.00
60611;BME280;46439;51.164;13.572;2023-04-27T09:25:24;100341.75;;;12.66;100.00
60611;BME280;46439;51.164;13.572;2023-04-27T09:27:53;100343.38;;;12.81;100.00
60611;BME280;46439;51.164;13.572;2023-04-27T09:30:23;100341.21;;;12.92;100.00
60611;BME280;46439;51.164;13.572;2023-04-27T09:32:56;100336.78;;;12.97;100.00
60611;BME280;46439;51.164;13.572;2023-04-27T09:35:27;100332.75;;;12.94;100.00
60611;BME280;46439;51.164;13.572;2023-04-27T09:37:59;100334.93;;;12.93;100.00
60611;BME280;46439;51.164;13.572;2023-04-27T09:40:29;100330.70;;;12.91;100.00
60611;BME280;46439;51.164;13.572;2023-04-27T09:42:59;100327.83;;;12.92;100.00
60611;BME280;46439;51.164;13.572;2023-04-27T09:45:31;100326.13;;;12.93;100.00
60611;BME280;46439;51.164;13.572;2023-04-27T09:48:01;100327.73;;;12.97;100.00
60611;BME280;46439;51.164;13.572;2023-04-27T09:50:32;100328.69;;;13.07;100.00
60611;BME280;46439;51.164;13.572;2023-04-27T09:53:04;100326.98;;;13.14;100.00
60611;BME280;46439;51.164;13.572;2023-04-27T09:55:35;100324.73;;;13.20;100.00
60611;BME280;46439;51.164;13.572;2023-04-27T09:58:08;100324.05;;;13.29;100.00
60611;BME280;46439;51.164;13.572;2023-04-27T10:00:51;100316.36;;;13.30;100.00
60611;BME280;46439;51.164;13.572;2023-04-27T10:03:28;100312.94;;;13.36;100.00
60611;BME280;46439;51.164;13.572;2023-04-27T10:06:35;100306.92;;;13.42;100.00
60611;BME280;46439;51.164;13.572;2023-04-27T10:09:12;100309.17;;;13.33;100.00
60611;BME280;46439;51.164;13.572;2023-04-27T10:11:42;100311.94;;;13.26;100.00
60611;BME280;46439;51.164;13.572;2023-04-27T10:14:18;100312.96;;;13.19;100.00
60611;BME280;46439;51.164;13.572;2023-04-27T10:16:49;100316.08;;;13.12;100.00
60611;BME280;46439;51.164;13.572;2023-04-27T10:19:19;100318.64;;;13.05;100.00
60611;BME280;46439;51.164;13.572;2023-04-27T10:21:59;100326.48;;;13.01;100.00
60611;BME280;46439;51.164;13.572;2023-04-27T10:24:40;100324.00;;;12.92;100.00
60611;BME280;46439;51.164;13.572;2023-04-27T10:27:15;100326.45;;;12.85;100.00
60611;BME280;46439;51.164;13.572;2023-04-27T10:29:45;100326.46;;;12.76;100.00
60611;BME280;46439;51.164;13.572;2023-04-27T10:32:19;100330.31;;;12.72;100.00
60611;BME280;46439;51.164;13.572;2023-04-27T10:34:49;100331.05;;;12.74;100.00
60611;BME280;46439;51.164;13.572;2023-04-27T10:37:18;100322.77;;;12.86;100.00
60611;BME280;46439;51.164;13.572;2023-04-27T10:39:49;100324.08;;;13.00;100.00
60611;BME280;46439;51.164;13.572;2023-04-27T10:42:28;100316.02;;;13.19;100.00
60611;BME280;46439;51.164;13.572;2023-04-27T10:44:57;100316.48;;;13.32;100.00
60611;BME280;46439;51.164;13.572;2023-04-27T10:47:37;100309.09;;;13.41;100.00
60611;BME280;46439;51.164;13.572;2023-04-27T10:50:08;100311.48;;;13.40;100.00
60611;BME280;46439;51.164;13.572;2023-04-27T10:52:44;100315.61;;;13.32;100.00
60611;BME280;46439;51.164;13.572;2023-04-27T10:55:15;100314.99;;;13.23;100.00
60611;BME280;46439;51.164;13.572;2023-04-27T10:57:48;100313.75;;;13.19;100.00
60611;BME280;46439;51.164;13.572;2023-04-27T11:00:23;100316.93;;;13.22;100.00
60611;BME280;46439;51.164;13.572;2023-04-27T11:02:53;100311.95;;;13.29;100.00
60611;BME280;46439;51.164;13.572;2023-04-27T11:05:24;100310.11;;;13.46;100.00
60611;BME280;46439;51.164;13.572;2023-04-27T11:08:04;100309.45;;;13.54;100.00
60611;BME280;46439;51.164;13.572;2023-04-27T11:10:34;100312.63;;;13.57;100.00
60611;BME280;46439;51.164;13.572;2023-04-27T11:13:17;100315.14;;;13.63;100.00
60611;BME280;46439;51.164;13.572;2023-04-27T11:15:47;100315.42;;;13.67;100.00
60611;BME280;46439;51.164;13.572;2023-04-27T11:18:17;100314.27;;;13.68;100.00
60611;BME280;46439;51.164;13.572;2023-04-27T11:20:48;100309.06;;;13.70;100.00
60611;BME280;46439;51.164;13.572;2023-04-27T11:23:25;100305.00;;;13.76;100.00
60611;BME280;46439;51.164;13.572;2023-04-27T11:25:55;100304.59;;;13.90;100.00
60611;BME280;46439;51.164;13.572;2023-04-27T11:28:24;100306.39;;;13.95;100.00
60611;BME280;46439;51.164;13.572;2023-04-27T11:30:59;100302.56;;;13.98;100.00
60611;BME280;46439;51.164;13.572;2023-04-27T11:33:28;100310.62;;;14.00;100.00
60611;BME280;46439;51.164;13.572;2023-04-27T11:35:57;100307.42;;;14.01;100.00
60611;BME280;46439;51.164;13.572;2023-04-27T11:38:31;100308.65;;;14.00;100.00
60611;BME280;46439;51.164;13.572;2023-04-27T11:41:01;100313.55;;;14.07;100.00
60611;BME280;46439;51.164;13.572;2023-04-27T11:43:31;100317.45;;;14.12;100.00
60611;BME280;46439;51.164;13.572;2023-04-27T11:46:03;100318.05;;;14.19;100.00
60611;BME280;46439;51.164;13.572;2023-04-27T11:48:32;100318.96;;;14.24;100.00
60611;BME280;46439;51.164;13.572;2023-04-27T11:51:00;100322.67;;;14.28;100.00
60611;BME280;46439;51.164;13.572;2023-04-27T11:53:33;100317.92;;;14.25;100.00
60611;BME280;46439;51.164;13.572;2023-04-27T11:56:02;100324.06;;;14.25;100.00
60611;BME280;46439;51.164;13.572;2023-04-27T11:58:35;100323.41;;;14.35;100.00
60611;BME280;46439;51.164;13.572;2023-04-27T12:01:05;100318.17;;;14.37;100.00
60611;BME280;46439;51.164;13.572;2023-04-27T12:03:34;100319.50;;;14.50;100.00
60611;BME280;46439;51.164;13.572;2023-04-27T12:06:03;100315.59;;;14.63;100.00
60611;BME280;46439;51.164;13.572;2023-04-27T12:08:32;100313.63;;;14.80;100.00
60611;BME280;46439;51.164;13.572;2023-04-27T12:11:00;100315.84;;;14.91;100.00
60611;BME280;46439;51.164;13.572;2023-04-27T12:13:30;100314.36;;;14.89;100.00
60611;BME280;46439;51.164;13.572;2023-04-27T12:15:59;100311.88;;;14.87;100.00
60611;BME280;46439;51.164;13.572;2023-04-27T12:18:27;100318.42;;;14.90;100.00
60611;BME280;46439;51.164;13.572;2023-04-27T12:20:56;100319.96;;;14.84;100.00
60611;BME280;46439;51.164;13.572;2023-04-27T12:23:24;100317.10;;;14.85;100.00
60611;BME280;46439;51.164;13.572;2023-04-27T12:25:53;100317.25;;;14.91;100.00
60611;BME280;46439;51.164;13.572;2023-04-27T12:28:21;100315.11;;;14.99;100.00
60611;BME280;46439;51.164;13.572;2023-04-27T12:30:50;100310.21;;;15.06;100.00
60611;BME280;46439;51.164;13.572;2023-04-27T12:33:19;100315.48;;;15.07;100.00
60611;BME280;46439;51.164;13.572;2023-04-27T12:35:47;100313.85;;;15.13;100.00
60611;BME280;46439;51.164;13.572;2023-04-27T12:38:16;100311.32;;;15.15;100.00
60611;BME280;46439;51.164;13.572;2023-04-27T12:40:44;100319.94;;;15.25;100.00
60611;BME280;46439;51.164;13.572;2023-04-27T12:43:13;100317.08;;;15.37;100.00
60611;BME280;46439;51.164;13.572;2023-04-27T12:45:42;100314.13;;;15.50;100.00
60611;BME280;46439;51.164;13.572;2023-04-27T12:48:10;100310.45;;;15.58;100.00